createdAt,value
2019-01-13T00:14:59.330Z,4.5
2019-01-13T00:30:19.011Z,4.7
2019-01-13T00:45:26.543Z,4.7
2019-01-13T01:00:38.682Z,4.7
2019-01-13T01:15:41.713Z,4.7
2019-01-13T01:31:03.010Z,4.7
2019-01-13T01:46:15.169Z,4.7
2019-01-13T02:01:27.396Z,4.8
2019-01-13T02:16:39.580Z,4.9
2019-01-13T02:31:50.327Z,4.9
2019-01-13T02:47:04.258Z,4.9
2019-01-13T03:02:16.288Z,4.9
2019-01-13T03:17:28.634Z,4.8
2019-01-13T03:32:32.910Z,4.9
2019-01-13T03:47:52.914Z,4.9
2019-01-13T04:03:05.251Z,5
2019-01-13T04:18:18.610Z,5
2019-01-13T04:33:29.791Z,5
2019-01-13T04:48:42.106Z,5.1
2019-01-13T05:03:54.295Z,4.9
2019-01-13T05:19:06.645Z,4.9
2019-01-13T05:34:18.849Z,5.1
2019-01-13T05:49:24.661Z,5
2019-01-13T06:04:43.389Z,4.8
2019-01-13T06:19:56.076Z,4.9
2019-01-13T06:35:07.822Z,4.9
2019-01-13T06:50:20.198Z,4.9
2019-01-13T07:05:32.333Z,5
2019-01-13T07:20:44.947Z,5.1
2019-01-13T07:35:56.972Z,5.2
2019-01-13T07:51:09.465Z,5.4
2019-01-13T08:06:16.826Z,5.4
2019-01-13T08:21:34.305Z,5.5
2019-01-13T08:36:46.751Z,5.7
2019-01-13T08:51:59.367Z,5.8
2019-01-13T09:07:12.015Z,5.9
2019-01-13T09:22:24.556Z,5.9
2019-01-13T09:37:37.279Z,6
2019-01-13T09:52:49.908Z,6.1
2019-01-13T10:08:02.566Z,6.2
2019-01-13T10:23:11.030Z,6.3
2019-01-13T10:38:28.286Z,6.3
2019-01-13T10:53:40.729Z,6.1
2019-01-13T11:08:53.314Z,6
2019-01-13T11:24:06.116Z,6.1
2019-01-13T11:39:18.731Z,6.3
2019-01-13T11:54:31.535Z,6.4
2019-01-13T12:09:44.294Z,6.4
2019-01-13T12:24:57.036Z,6.3
2019-01-13T12:40:06.312Z,6.1
2019-01-13T12:55:22.426Z,6.3
2019-01-13T13:10:35.237Z,6.3
2019-01-13T13:25:47.962Z,6.3
2019-01-13T13:40:50.746Z,6.4
2019-01-13T13:56:13.614Z,6.4
2019-01-13T14:11:26.485Z,6.6
2019-01-13T14:26:39.402Z,6.7
2019-01-13T14:41:53.333Z,6.7
2019-01-13T14:57:02.728Z,6.8
2019-01-13T15:12:18.032Z,6.7
2019-01-13T15:27:30.837Z,6.5
2019-01-13T15:42:43.700Z,6.3
2019-01-13T15:57:46.980Z,6.2
2019-01-13T16:13:09.086Z,6.3
2019-01-13T16:28:22.019Z,6.4
2019-01-13T16:43:34.579Z,6.6
2019-01-13T16:58:47.462Z,6.7
2019-01-13T17:14:02.765Z,6.8
2019-01-13T17:29:13.371Z,6.9
2019-01-13T17:44:26.621Z,6.8
2019-01-13T17:59:39.121Z,6.9
2019-01-13T18:14:42.535Z,6.9
2019-01-13T18:30:05.108Z,7
2019-01-13T18:45:18.018Z,7.3
2019-01-13T19:00:31.132Z,7.5
2019-01-13T19:15:44.725Z,7.7
2019-01-13T19:30:55.294Z,7.8
2019-01-13T19:46:10.996Z,8.1
2019-01-13T20:01:24.328Z,8
2019-01-13T20:16:37.619Z,7.7
2019-01-13T20:31:40.791Z,7.4
2019-01-13T20:47:03.828Z,7.1
2019-01-13T21:02:16.860Z,7.3
2019-01-13T21:17:29.971Z,6.9
2019-01-13T21:32:42.928Z,6.6
2019-01-13T21:47:52.301Z,6.5
2019-01-13T22:03:13.965Z,6.6
2019-01-13T22:18:21.162Z,6.4
2019-01-13T22:33:33.867Z,6.5
2019-01-13T22:48:36.902Z,6.7
2019-01-13T23:03:59.957Z,6.8
2019-01-13T23:19:12.573Z,6.8
2019-01-13T23:34:26.894Z,6.8
2019-01-13T23:49:38.440Z,6.5
